Friday, April 20, 2018, 4:03 PM EDT
Back to Local

KBML, Berlin Municipal Airport

Location: Milan, NH, United States Lat: 44.583
Local Time: 4:03 PM EDT (20:03 GMT) Lon: -71.183
Time Zone: US/Eastern Elev: 1158 ft

Show me the last for .
Show Decoded

2018-04-20 15:52 METAR KBML 201952Z AUTO 29010G18KT 250V310 10SM OVC031 04/M01 A3004 RMK AO2
                 SLP185 T00441006 =
2018-04-20 15:28 METAR KBML 201928Z AUTO 28012G19KT 10SM OVC030 04/M01 A3004 RMK AO2 T00391011 =
2018-04-20 14:52 METAR KBML 201852Z AUTO 29009G17KT 260V330 10SM OVC028 03/M01 A3003 RMK AO2
                 UPB1759E06SNE1759 SLP181 P0000 T00331011 =
2018-04-20 13:52 METAR KBML 201752Z AUTO 27007G16KT 240V300 5SM -SN OVC024 03/M01 A3002 RMK AO2
                 RAB18E22SNB22 SLP177 P0000 60000 T00281006 10039 20006 53021 =
2018-04-20 12:52 METAR KBML 201652Z AUTO 27008G16KT 220V290 10SM OVC025 04/M01 A2999 RMK AO2
                 SNB1554E03 SLP169 P0000 T00391011 =
2018-04-20 11:52 METAR KBML 201552Z AUTO VRB06G16KT 10SM OVC025 03/M02 A2998 RMK AO2 SLP164
                 T00281017 =
2018-04-20 10:52 METAR KBML 201452Z AUTO 26006KT 10SM BKN028 OVC033 03/M02 A2995 RMK AO2 SLP157
                 T00331017 51020 =
2018-04-20 09:52 METAR KBML 201352Z AUTO VRB04KT 10SM OVC024 02/M02 A2994 RMK AO2 SLP152
                 T00221017 =
2018-04-20 09:28 METAR KBML 201328Z AUTO 28007KT 180V320 10SM BKN026 OVC031 02/M02 A2993 RMK AO2
                 T00221017 =
2018-04-20 09:10 METAR KBML 201310Z AUTO VRB06KT 10SM SCT025 BKN031 OVC060 02/M02 A2992 RMK AO2
                 T00171022 =
2018-04-20 08:52 METAR KBML 201252Z AUTO 29007KT 10SM BKN026 BKN033 OVC049 01/M02 A2992 RMK AO2
                 SLP145 T00111022 =
2018-04-20 07:52 METAR KBML 201152Z AUTO 29004KT 10SM OVC025 01/M02 A2989 RMK AO2 SLP136 60000
                 T00061022 10011 20006 51030 =
2018-04-20 06:52 METAR KBML 201052Z AUTO 00000KT 10SM BKN024 OVC033 01/M02 A2987 RMK AO2 SLP129
                 T00061022 =
2018-04-20 05:52 METAR KBML 200952Z AUTO VRB03KT 10SM OVC023 01/M02 A2984 RMK AO2 SLP115
                 T00061022 =
2018-04-20 04:52 METAR KBML 200852Z AUTO VRB06KT 10SM OVC022 01/M02 A2980 RMK AO2 SNE20 SLP104
                 P0000 60000 T00061022 53015 =
2018-04-20 04:30 METAR KBML 200830Z AUTO VRB05KT 10SM BKN025 OVC030 01/M02 A2980 RMK AO2 SNE20
                 P0000 T00061022 =
2018-04-20 03:52 METAR KBML 200752Z AUTO 30006KT 5SM -SN BR FEW033 BKN041 OVC047 01/M02 A2978 RMK
                 AO2 SNB0658 SLP097 P0000 T00061017 =
2018-04-20 02:52 METAR KBML 200652Z AUTO VRB04KT 10SM OVC030 01/M01 A2977 RMK AO2 SNE38 SLP092
                 P0000 T00061011 =
2018-04-20 01:52 METAR KBML 200552Z AUTO 27004KT 8SM -SN OVC028 01/M01 A2976 RMK AO2 SLP088 P0000
                 60000 T00111011 10017 20000 53001 =
2018-04-20 01:35 METAR KBML 200535Z AUTO VRB05KT 5SM -SN BR OVC029 01/M01 A2976 RMK AO2 P0000
                 T00111011 =
2018-04-20 01:01 METAR KBML 200501Z AUTO VRB05KT 6SM -SN BR FEW025 OVC031 01/M01 A2976 RMK AO2
                 P0000 T00111011 =
2018-04-20 00:52 METAR KBML 200452Z AUTO 29006KT 6SM -SN BR BKN029 OVC042 01/M01 A2976 RMK AO2
                 SLP088 P0000 T00111011 400560000 =
2018-04-19 23:52 METAR KBML 200352Z AUTO 30004KT 5SM -SN BR FEW013 OVC043 01/M01 A2975 RMK AO2
                 SNB0258 SLP085 P0000 T00061006 =
2018-04-19 22:52 METAR KBML 200252Z AUTO 00000KT 10SM BKN033 BKN060 OVC120 00/M01 A2976 RMK AO2
                 SLP088 60000 T00001011 50003 =
2018-04-19 21:52 METAR KBML 200152Z AUTO 00000KT 10SM SCT070 SCT085 OVC120 01/M01 A2976 RMK AO2
                 SNE18 SLP090 P0000 T00061011 =
2018-04-19 21:13 METAR KBML 200113Z AUTO 00000KT 4SM -SN BR OVC035 01/M01 A2976 RMK AO2 P0000
                 T00111006 =
2018-04-19 21:05 METAR KBML 200105Z AUTO 32003KT 2 1/2SM -SN BR OVC033 01/M01 A2976 RMK AO2 P0000
                 T00111006 =
2018-04-19 20:52 METAR KBML 200052Z AUTO 32004KT 5SM -SN BR FEW014 OVC045 01/M01 A2976 RMK AO2
                 SNB01 SLP089 P0000 T00111006 =
2018-04-19 19:52 METAR KBML 192352Z AUTO 00000KT 10SM BKN055 BKN070 OVC085 02/M01 A2974 RMK AO2
                 SNE21 SLP084 P0000 60000 T00171011 10050 20017 53021 =
2018-04-19 19:15 METAR KBML 192315Z AUTO 00000KT 6SM -SN BR FEW021 FEW027 OVC035 02/M01 A2973 RMK
                 AO2 P0000 T00171006 =
2018-04-19 19:06 METAR KBML 192306Z AUTO 00000KT 2SM -SN FEW019 BKN030 OVC035 02/M01 A2973 RMK
                 AO2 P0000 T00171011 =
2018-04-19 18:52 METAR KBML 192252Z AUTO 31005KT 1 3/4SM -SN BKN024 OVC035 02/M01 A2972 RMK AO2
                 SNB15 SLP074 P0000 T00171011 =
2018-04-19 18:42 METAR KBML 192242Z AUTO 00000KT 1 3/4SM -SN BKN023 BKN029 OVC034 02/M01 A2971
                 RMK AO2 SNB15 P0000 T00221011 =
2018-04-19 18:33 METAR KBML 192233Z AUTO VRB03KT 2 1/2SM -SN BKN028 OVC034 02/M01 A2971 RMK AO2
                 VIS 1 3/4V5 SNB15 P0000 T00221011 =
2018-04-19 17:52 METAR KBML 192152Z AUTO 33006KT 10SM SCT035 BKN045 OVC050 04/M02 A2970 RMK AO2
                 SLP066 T00391022 =
2018-04-19 16:52 METAR KBML 192052Z AUTO 00000KT 10SM FEW028 BKN035 OVC070 04/M02 A2968 RMK AO2
                 RAB23E30SNE23 SLP061 P0000 60000 T00441017 51014 =
2018-04-19 16:33 METAR KBML 192033Z AUTO 00000KT 10SM FEW028 BKN038 OVC070 04/M01 A2968 RMK AO2
                 RAB23E30SNE23 P0000 T00391006 =
2018-04-19 16:26 METAR KBML 192026Z AUTO 00000KT 9SM -RA BKN028 OVC037 04/M01 A2968 RMK AO2
                 RAB23SNE23 P0000 T00391006 =
2018-04-19 16:12 METAR KBML 192012Z AUTO VRB04KT 3SM -SN SCT025 OVC034 03/00 A2967 RMK AO2 P0000
                 T00330000 =
2018-04-19 16:05 METAR KBML 192005Z AUTO 36005KT 2SM -SN BKN025 OVC033 03/00 A2968 RMK AO2 P0000
                 T00280000 =

Support USWX by starting your Amazon purchase here.